createdAt,value
2018-08-22T00:00:16.099Z,4.27
2018-08-22T00:01:20.239Z,6.90
2018-08-22T00:02:24.581Z,5.30
2018-08-22T00:03:28.944Z,6.63
2018-08-22T00:04:33.114Z,7.10
2018-08-22T00:05:37.282Z,6.17
2018-08-22T00:06:41.440Z,6.93
2018-08-22T00:07:45.590Z,6.63
2018-08-22T00:08:49.995Z,5.10
2018-08-22T00:09:54.122Z,10.10
2018-08-22T00:10:58.473Z,5.87
2018-08-22T00:12:02.623Z,5.37
2018-08-22T00:13:06.865Z,8.20
2018-08-22T00:14:11.014Z,4.07
2018-08-22T00:15:15.374Z,5.20
2018-08-22T00:16:19.496Z,4.70
2018-08-22T00:17:23.623Z,5.83
2018-08-22T00:18:28.011Z,8.83
2018-08-22T00:19:32.197Z,5.73
2018-08-22T00:20:36.422Z,5.97
2018-08-22T00:21:40.706Z,6.80
2018-08-22T00:22:44.933Z,4.80
2018-08-22T00:23:49.067Z,6.37
2018-08-22T00:24:53.209Z,4.23
2018-08-22T00:25:57.376Z,4.40
2018-08-22T00:27:01.555Z,5.20
2018-08-22T00:28:05.732Z,4.90
2018-08-22T00:29:09.933Z,5.13
2018-08-22T00:30:14.063Z,5.23
2018-08-22T00:31:18.217Z,5.67
2018-08-22T00:32:22.430Z,6.47
2018-08-22T00:33:26.568Z,4.80
2018-08-22T00:34:30.726Z,4.73
2018-08-22T00:35:35.126Z,6.83
2018-08-22T00:36:39.396Z,6.50
2018-08-22T00:37:43.567Z,5.00
2018-08-22T00:38:47.739Z,7.23
2018-08-22T00:39:51.930Z,4.33
2018-08-22T00:40:56.107Z,5.97
2018-08-22T00:42:00.319Z,8.10
2018-08-22T00:43:04.502Z,7.30
2018-08-22T00:44:08.674Z,4.90
2018-08-22T00:45:12.934Z,5.53
2018-08-22T00:46:17.094Z,6.07
2018-08-22T00:47:21.291Z,5.20
2018-08-22T00:48:25.510Z,6.13
2018-08-22T00:49:29.693Z,6.40
2018-08-22T00:50:33.851Z,5.90
2018-08-22T00:51:38.015Z,5.30
2018-08-22T00:52:42.472Z,4.87
2018-08-22T00:53:46.638Z,4.47
2018-08-22T00:54:50.822Z,6.50
2018-08-22T00:55:54.993Z,8.77
2018-08-22T00:56:59.142Z,8.63
2018-08-22T00:58:03.304Z,4.13
2018-08-22T00:59:07.506Z,4.27
2018-08-22T01:00:11.748Z,3.90
2018-08-22T01:01:15.935Z,6.40
2018-08-22T01:02:20.706Z,4.80
2018-08-22T01:03:24.869Z,5.63
2018-08-22T01:04:29.198Z,4.40
2018-08-22T01:05:33.773Z,4.50
2018-08-22T01:06:38.451Z,6.07
2018-08-22T01:07:42.630Z,4.70
2018-08-22T01:08:46.984Z,6.47
2018-08-22T01:09:51.156Z,4.90
2018-08-22T01:10:55.342Z,4.40
2018-08-22T01:11:59.540Z,5.40
2018-08-22T01:13:03.805Z,5.50
2018-08-22T01:14:08.307Z,5.63
2018-08-22T01:15:12.726Z,5.47
2018-08-22T01:16:17.103Z,4.33
2018-08-22T01:17:21.274Z,4.97
2018-08-22T01:18:25.422Z,6.50
2018-08-22T01:19:29.620Z,15.47
2018-08-22T01:20:33.839Z,7.93
2018-08-22T01:21:38.086Z,4.97
2018-08-22T01:22:42.391Z,4.83
2018-08-22T01:23:46.571Z,5.40
2018-08-22T01:24:50.784Z,4.53
2018-08-22T01:25:54.963Z,5.77
2018-08-22T01:26:59.189Z,4.40
2018-08-22T01:28:03.395Z,4.30
2018-08-22T01:29:07.542Z,5.87
2018-08-22T01:30:11.709Z,3.97
2018-08-22T01:31:16.063Z,4.57
2018-08-22T01:32:20.576Z,5.80
2018-08-22T01:33:25.082Z,5.00
2018-08-22T01:34:29.241Z,7.30
2018-08-22T01:35:33.390Z,4.83
2018-08-22T01:36:37.957Z,4.63
2018-08-22T01:37:42.078Z,5.20
2018-08-22T01:38:46.376Z,5.17
2018-08-22T01:39:50.655Z,5.13
2018-08-22T01:40:54.788Z,6.20
2018-08-22T01:41:58.947Z,5.27
2018-08-22T01:43:03.078Z,4.73
2018-08-22T01:44:07.229Z,6.03
2018-08-22T01:45:11.385Z,8.73
2018-08-22T01:46:15.510Z,7.60
2018-08-22T01:47:19.689Z,5.70
2018-08-22T01:48:23.847Z,7.00
2018-08-22T01:49:28.214Z,4.43
2018-08-22T01:50:32.348Z,5.33
2018-08-22T01:51:36.495Z,4.40
2018-08-22T01:52:40.678Z,8.70
2018-08-22T01:53:44.819Z,5.10
2018-08-22T01:54:48.960Z,5.20
2018-08-22T01:55:53.106Z,4.70
2018-08-22T01:56:57.240Z,5.80
2018-08-22T01:58:01.407Z,4.97
2018-08-22T01:59:05.547Z,8.87
2018-08-22T02:00:09.910Z,6.10
2018-08-22T02:01:14.058Z,5.17
2018-08-22T02:02:18.234Z,5.57
2018-08-22T02:03:22.503Z,4.70
2018-08-22T02:04:26.677Z,7.13
2018-08-22T02:05:30.811Z,6.37
2018-08-22T02:06:34.942Z,5.60
2018-08-22T02:07:39.100Z,9.53
2018-08-22T02:08:43.259Z,4.10
2018-08-22T02:09:47.415Z,4.97
2018-08-22T02:10:51.600Z,4.40
2018-08-22T02:11:55.804Z,5.20
2018-08-22T02:13:00.130Z,6.60
2018-08-22T02:14:04.493Z,5.17
2018-08-22T02:15:08.728Z,7.50
2018-08-22T02:16:12.944Z,5.43
2018-08-22T02:17:17.114Z,6.73
2018-08-22T02:18:21.271Z,8.60
2018-08-22T02:19:25.445Z,4.77
2018-08-22T02:20:29.593Z,5.83
2018-08-22T02:21:34.223Z,5.30
2018-08-22T02:22:38.354Z,7.30
2018-08-22T02:23:42.498Z,6.13
2018-08-22T02:24:46.694Z,8.43
2018-08-22T02:25:50.843Z,6.10
2018-08-22T02:26:54.991Z,7.10
2018-08-22T02:27:59.134Z,6.13
2018-08-22T02:29:03.567Z,5.20
2018-08-22T02:30:07.723Z,8.17
2018-08-22T02:31:11.940Z,9.47
2018-08-22T02:32:16.088Z,5.37
2018-08-22T02:33:20.420Z,5.30
2018-08-22T02:34:24.572Z,5.90
2018-08-22T02:35:28.756Z,11.00
2018-08-22T02:36:33.036Z,5.90
2018-08-22T02:37:37.387Z,7.67
2018-08-22T02:38:41.566Z,7.47
2018-08-22T02:39:45.722Z,6.10
2018-08-22T02:40:50.064Z,6.33
2018-08-22T02:41:54.227Z,10.73
2018-08-22T02:42:58.399Z,5.40
2018-08-22T02:44:02.704Z,9.50
2018-08-22T02:45:06.881Z,6.30
2018-08-22T02:46:11.067Z,5.13
2018-08-22T02:47:15.239Z,7.70
2018-08-22T02:48:19.490Z,5.70
2018-08-22T02:49:23.907Z,8.07
2018-08-22T02:50:28.062Z,8.08
2018-08-22T02:51:32.294Z,5.43
2018-08-22T02:52:36.794Z,5.53
2018-08-22T02:53:41.216Z,6.08
2018-08-22T02:54:45.375Z,7.43
2018-08-22T02:55:49.549Z,6.03
2018-08-22T02:56:53.753Z,5.50
2018-08-22T02:57:57.974Z,5.70
2018-08-22T02:59:02.155Z,5.40
2018-08-22T03:00:06.315Z,5.50
2018-08-22T03:01:10.486Z,6.40
2018-08-22T03:02:14.780Z,6.80
2018-08-22T03:03:19.126Z,7.57
2018-08-22T03:04:23.323Z,8.40
2018-08-22T03:05:27.504Z,7.23
2018-08-22T03:06:31.687Z,6.23
2018-08-22T03:07:35.884Z,5.87
2018-08-22T03:08:40.215Z,6.70
2018-08-22T03:09:44.347Z,5.67
2018-08-22T03:10:48.624Z,5.47
2018-08-22T03:11:53.106Z,6.33
2018-08-22T03:12:57.283Z,6.83
2018-08-22T03:14:01.456Z,5.53
2018-08-22T03:15:05.622Z,10.60
2018-08-22T03:16:10.162Z,6.80
2018-08-22T03:17:14.498Z,13.93
2018-08-22T03:18:18.707Z,8.50
2018-08-22T03:19:23.084Z,5.60
2018-08-22T03:20:27.391Z,13.70
2018-08-22T03:21:31.546Z,13.27
2018-08-22T03:22:35.720Z,6.00
2018-08-22T03:23:39.907Z,11.60
2018-08-22T03:24:44.082Z,12.97
2018-08-22T03:25:48.724Z,8.28
2018-08-22T03:26:53.291Z,7.42
2018-08-22T03:27:57.483Z,7.20
2018-08-22T03:29:01.694Z,6.60
2018-08-22T03:30:05.956Z,8.87
2018-08-22T03:31:10.095Z,5.80
2018-08-22T03:32:14.273Z,5.60
2018-08-22T03:33:18.432Z,5.93
2018-08-22T03:34:22.621Z,7.03
2018-08-22T03:35:26.798Z,7.07
2018-08-22T03:36:31.010Z,7.60
2018-08-22T03:37:35.186Z,8.50
2018-08-22T03:38:39.631Z,7.40
2018-08-22T03:39:43.800Z,6.45
2018-08-22T03:40:48.005Z,7.90
2018-08-22T03:41:52.209Z,19.20
2018-08-22T03:42:56.418Z,9.73
2018-08-22T03:44:00.725Z,8.85
2018-08-22T03:45:04.964Z,6.67
2018-08-22T03:46:09.341Z,9.90
2018-08-22T03:47:13.473Z,9.73
2018-08-22T03:48:17.921Z,5.83
2018-08-22T03:49:22.072Z,8.33
2018-08-22T03:50:26.318Z,6.97
2018-08-22T03:51:30.531Z,5.23
2018-08-22T03:52:34.799Z,5.13
2018-08-22T03:53:38.988Z,6.90
2018-08-22T03:54:43.752Z,7.08
2018-08-22T03:55:48.113Z,9.50
2018-08-22T03:56:52.260Z,4.22
2018-08-22T03:57:56.437Z,5.30
2018-08-22T03:59:00.622Z,5.80
2018-08-22T04:00:04.982Z,7.85
2018-08-22T04:01:09.175Z,8.30
2018-08-22T04:02:13.323Z,6.30
2018-08-22T04:03:17.496Z,5.43
2018-08-22T04:04:21.656Z,8.50
2018-08-22T04:05:25.842Z,7.63
2018-08-22T04:06:30.198Z,10.00
2018-08-22T04:07:34.365Z,8.78
2018-08-22T04:08:38.518Z,8.05
2018-08-22T04:09:42.674Z,42.10
2018-08-22T04:10:46.836Z,5.33
2018-08-22T04:11:57.475Z,11.43
2018-08-22T04:13:01.627Z,5.50
2018-08-22T04:14:05.807Z,5.60
2018-08-22T04:15:10.151Z,5.90
2018-08-22T04:16:14.290Z,7.63
2018-08-22T04:17:18.560Z,12.33
2018-08-22T04:18:22.697Z,9.57
2018-08-22T04:19:26.851Z,9.65
2018-08-22T04:20:31.002Z,6.58
2018-08-22T04:21:35.175Z,4.80
2018-08-22T04:22:40.191Z,10.90
2018-08-22T04:23:44.346Z,6.83
2018-08-22T04:24:48.521Z,7.72
2018-08-22T04:25:52.668Z,6.70
2018-08-22T04:26:56.818Z,5.90
2018-08-22T04:28:01.021Z,6.10
2018-08-22T04:29:05.504Z,5.63
2018-08-22T04:30:09.672Z,4.53
2018-08-22T04:31:13.824Z,5.20
2018-08-22T04:32:18.048Z,4.67
2018-08-22T04:33:22.314Z,6.43
2018-08-22T04:34:26.471Z,6.07
2018-08-22T04:35:30.765Z,8.00
2018-08-22T04:36:34.969Z,5.80
2018-08-22T04:37:39.176Z,8.20
2018-08-22T04:38:43.654Z,5.22
2018-08-22T04:39:47.950Z,5.83
2018-08-22T04:40:52.132Z,7.37
2018-08-22T04:41:56.312Z,9.73
2018-08-22T04:43:00.503Z,5.57
2018-08-22T04:44:04.822Z,5.27
2018-08-22T04:45:08.957Z,7.50
2018-08-22T04:46:13.122Z,6.85
2018-08-22T04:47:17.302Z,7.05
2018-08-22T04:48:21.841Z,7.00
2018-08-22T04:49:25.986Z,8.18
2018-08-22T04:50:30.217Z,12.30
2018-08-22T04:51:34.564Z,9.63
2018-08-22T04:52:38.693Z,13.25
2018-08-22T04:53:42.990Z,9.23
2018-08-22T04:54:47.188Z,14.70
2018-08-22T04:55:51.411Z,12.17
2018-08-22T04:56:55.601Z,8.43
2018-08-22T04:57:59.787Z,7.62
2018-08-22T04:59:03.987Z,5.12
2018-08-22T05:00:08.948Z,6.10
2018-08-22T05:01:13.093Z,10.30
2018-08-22T05:02:17.247Z,7.23
2018-08-22T05:03:21.424Z,9.40
2018-08-22T05:04:25.707Z,10.20
2018-08-22T05:05:29.916Z,15.60
2018-08-22T05:06:34.251Z,9.63
2018-08-22T05:07:38.667Z,9.80
2018-08-22T05:08:42.866Z,6.23
2018-08-22T05:09:47.040Z,8.98
2018-08-22T05:10:51.255Z,10.43
2018-08-22T05:11:55.604Z,14.10
2018-08-22T05:12:59.942Z,10.93
2018-08-22T05:14:04.148Z,14.38
2018-08-22T05:15:08.564Z,9.30
2018-08-22T05:16:12.755Z,9.95
2018-08-22T05:17:16.930Z,12.75
2018-08-22T05:18:21.112Z,7.77
2018-08-22T05:19:32.084Z,11.28
2018-08-22T05:20:36.245Z,13.40
2018-08-22T05:21:40.516Z,12.37
2018-08-22T05:22:44.700Z,9.00
2018-08-22T05:23:48.882Z,9.90
2018-08-22T05:24:53.079Z,9.73
2018-08-22T05:25:57.220Z,13.93
2018-08-22T05:27:01.425Z,9.73
2018-08-22T05:28:05.972Z,9.53
2018-08-22T05:29:10.543Z,10.15
2018-08-22T05:30:14.819Z,11.33
2018-08-22T05:31:19.160Z,15.60
2018-08-22T05:32:23.340Z,6.33
2018-08-22T05:33:27.528Z,11.67
2018-08-22T05:34:31.679Z,13.05
2018-08-22T05:35:35.889Z,8.28
2018-08-22T05:36:40.032Z,10.77
2018-08-22T05:37:44.198Z,7.97
2018-08-22T05:38:48.551Z,11.30
2018-08-22T05:39:52.744Z,8.75
2018-08-22T05:40:57.028Z,15.85
2018-08-22T05:42:01.187Z,13.25
2018-08-22T05:43:05.467Z,8.85
2018-08-22T05:44:09.656Z,10.80
2018-08-22T05:45:13.863Z,7.83
2018-08-22T05:46:18.044Z,9.30
2018-08-22T05:47:22.287Z,11.75
2018-08-22T05:48:26.518Z,8.23
2018-08-22T05:49:30.854Z,8.93
2018-08-22T05:50:35.138Z,11.73
2018-08-22T05:51:39.521Z,26.27
2018-08-22T05:52:43.685Z,10.77
2018-08-22T05:53:47.885Z,9.07
2018-08-22T05:54:52.078Z,16.52
2018-08-22T05:55:56.289Z,8.73
2018-08-22T05:57:00.426Z,7.70
2018-08-22T05:58:04.728Z,12.90
2018-08-22T05:59:08.931Z,10.90
2018-08-22T06:00:13.123Z,8.60
2018-08-22T06:01:17.418Z,11.57
2018-08-22T06:02:21.704Z,7.07
2018-08-22T06:03:25.921Z,7.37
2018-08-22T06:04:30.092Z,6.83
2018-08-22T06:05:34.445Z,11.03
2018-08-22T06:06:38.603Z,8.03
2018-08-22T06:07:42.854Z,18.67
2018-08-22T06:08:47.035Z,7.70
2018-08-22T06:09:51.263Z,9.50
2018-08-22T06:10:55.428Z,5.23
2018-08-22T06:11:59.626Z,11.50
2018-08-22T06:13:04.438Z,8.43
2018-08-22T06:14:08.595Z,10.00
2018-08-22T06:15:12.774Z,6.80
2018-08-22T06:16:16.948Z,8.33
2018-08-22T06:17:21.621Z,9.67
2018-08-22T06:18:25.768Z,8.30
2018-08-22T06:19:30.032Z,9.40
2018-08-22T06:20:34.224Z,7.90
2018-08-22T06:21:38.646Z,5.93
2018-08-22T06:22:42.802Z,6.53
2018-08-22T06:23:46.988Z,9.70
2018-08-22T06:24:51.200Z,7.53
2018-08-22T06:25:55.467Z,12.67
2018-08-22T06:26:59.671Z,21.50
2018-08-22T06:28:03.892Z,11.93
2018-08-22T06:29:08.084Z,14.33
2018-08-22T06:30:12.346Z,27.87
2018-08-22T06:31:16.594Z,24.80
2018-08-22T06:32:20.967Z,11.83
2018-08-22T06:33:25.279Z,12.37
2018-08-22T06:34:29.470Z,10.87
2018-08-22T06:35:34.145Z,9.43
2018-08-22T06:36:38.544Z,14.33
2018-08-22T06:37:42.759Z,17.27
2018-08-22T06:38:46.964Z,10.93
2018-08-22T06:39:51.567Z,18.60
2018-08-22T06:40:55.908Z,31.93
2018-08-22T06:42:00.699Z,16.23
2018-08-22T06:43:04.863Z,27.93
2018-08-22T06:44:09.183Z,9.93
2018-08-22T06:45:13.318Z,24.40
2018-08-22T06:46:17.490Z,27.13
2018-08-22T06:47:21.739Z,20.50
2018-08-22T06:48:26.192Z,17.17
2018-08-22T06:49:30.382Z,21.13
2018-08-22T06:50:34.644Z,25.30
2018-08-22T06:51:38.808Z,17.23
2018-08-22T06:52:43.016Z,17.73
2018-08-22T06:53:47.179Z,19.30
2018-08-22T06:54:51.396Z,15.23
2018-08-22T06:55:55.578Z,14.23
2018-08-22T06:56:59.777Z,15.70
2018-08-22T06:58:03.975Z,17.67
2018-08-22T06:59:08.124Z,15.50
2018-08-22T07:00:12.308Z,20.40
2018-08-22T07:01:16.638Z,19.33
2018-08-22T07:02:21.076Z,16.27
2018-08-22T07:03:25.486Z,12.87
2018-08-22T07:04:29.672Z,20.10
2018-08-22T07:05:33.864Z,12.13
2018-08-22T07:06:38.016Z,15.90
2018-08-22T07:07:42.176Z,14.43
2018-08-22T07:08:46.382Z,11.40
2018-08-22T07:09:50.557Z,15.63
2018-08-22T07:10:54.715Z,16.37
2018-08-22T07:11:58.876Z,18.07
2018-08-22T07:13:03.157Z,14.83
2018-08-22T07:14:07.775Z,19.33
2018-08-22T07:15:12.061Z,15.60
2018-08-22T07:16:16.216Z,17.30
2018-08-22T07:17:20.377Z,15.80
2018-08-22T07:18:24.548Z,15.60
2018-08-22T07:19:28.796Z,17.10
2018-08-22T07:20:32.922Z,15.03
2018-08-22T07:21:37.128Z,16.53
2018-08-22T07:22:41.287Z,17.97
2018-08-22T07:23:45.451Z,15.97
2018-08-22T07:24:49.925Z,16.70
2018-08-22T07:25:54.063Z,16.17
2018-08-22T07:26:58.515Z,20.27
2018-08-22T07:28:02.807Z,16.33
2018-08-22T07:29:06.963Z,19.73
2018-08-22T07:30:11.352Z,20.03
2018-08-22T07:31:15.463Z,16.93
2018-08-22T07:32:19.744Z,21.57
2018-08-22T07:33:24.006Z,25.57
2018-08-22T07:34:28.524Z,19.33
2018-08-22T07:35:32.864Z,19.00
2018-08-22T07:36:37.104Z,26.57
2018-08-22T07:37:41.264Z,16.57
2018-08-22T07:38:45.420Z,29.50
2018-08-22T07:39:49.629Z,16.70
2018-08-22T07:40:53.994Z,16.67
2018-08-22T07:41:58.171Z,18.60
2018-08-22T07:43:02.356Z,20.03
2018-08-22T07:44:07.207Z,19.90
2018-08-22T07:45:11.383Z,18.80
2018-08-22T07:46:15.652Z,21.60
2018-08-22T07:47:19.872Z,17.57
2018-08-22T07:48:24.044Z,32.83
2018-08-22T07:49:28.247Z,24.17
2018-08-22T07:50:33.024Z,25.97
2018-08-22T07:51:37.302Z,21.07
2018-08-22T07:52:48.885Z,19.40
2018-08-22T07:53:53.045Z,21.80
2018-08-22T07:54:57.226Z,16.73
2018-08-22T07:56:01.603Z,24.83
2018-08-22T07:57:05.785Z,25.53
2018-08-22T07:58:10.219Z,25.97
2018-08-22T07:59:16.040Z,18.60
2018-08-22T08:00:20.225Z,15.33
2018-08-22T08:01:24.428Z,19.90
2018-08-22T08:02:28.678Z,26.60
2018-08-22T08:03:33.035Z,20.97
2018-08-22T08:04:37.292Z,24.60
2018-08-22T08:05:41.466Z,23.93
2018-08-22T08:06:45.703Z,16.70
2018-08-22T08:07:49.887Z,23.30
2018-08-22T08:08:54.068Z,20.83
2018-08-22T08:09:58.244Z,13.67
2018-08-22T08:11:02.492Z,17.63
2018-08-22T08:12:06.611Z,18.00
2018-08-22T08:13:16.557Z,20.43
2018-08-22T08:14:20.699Z,19.97
2018-08-22T08:15:24.916Z,15.87
2018-08-22T08:16:29.154Z,19.87
2018-08-22T08:17:33.571Z,16.40
2018-08-22T08:18:37.795Z,23.17
2018-08-22T08:19:42.002Z,24.13
2018-08-22T08:20:46.150Z,29.37
2018-08-22T08:21:50.338Z,19.90
2018-08-22T08:22:54.527Z,16.80
2018-08-22T08:23:58.717Z,15.77
2018-08-22T08:25:02.887Z,25.37
2018-08-22T08:26:07.097Z,15.47
2018-08-22T08:27:11.239Z,22.13
2018-08-22T08:28:15.448Z,17.03
2018-08-22T08:29:19.634Z,14.07
2018-08-22T08:30:23.809Z,11.90
2018-08-22T08:31:28.258Z,15.20
2018-08-22T08:32:32.431Z,15.43
2018-08-22T08:33:36.611Z,15.37
2018-08-22T08:34:40.815Z,21.03
2018-08-22T08:35:45.052Z,19.30
2018-08-22T08:36:49.386Z,14.10
2018-08-22T08:37:53.549Z,16.47
2018-08-22T08:38:57.729Z,14.63
2018-08-22T08:40:01.912Z,14.03
2018-08-22T08:41:06.274Z,9.50
2018-08-22T08:42:10.418Z,12.73
2018-08-22T08:43:14.602Z,17.10
2018-08-22T08:44:18.769Z,15.30
2018-08-22T08:45:23.010Z,12.93
2018-08-22T08:46:27.334Z,13.87
2018-08-22T08:47:31.507Z,12.80
2018-08-22T08:48:36.359Z,12.73
2018-08-22T08:49:40.784Z,11.90
2018-08-22T08:50:44.889Z,19.93
2018-08-22T08:51:57.263Z,20.30
2018-08-22T08:53:01.403Z,12.33
2018-08-22T08:54:05.634Z,13.23
2018-08-22T08:55:10.193Z,17.17
2018-08-22T08:56:14.602Z,19.10
2018-08-22T08:57:18.811Z,17.73
2018-08-22T08:58:22.956Z,13.07
2018-08-22T08:59:27.126Z,16.07
2018-08-22T09:00:31.319Z,18.10
2018-08-22T09:01:35.488Z,14.90
2018-08-22T09:02:39.730Z,15.27
2018-08-22T09:03:44.119Z,18.20
2018-08-22T09:04:48.275Z,17.27
2018-08-22T09:05:52.653Z,19.63
2018-08-22T09:06:57.071Z,16.40
2018-08-22T09:08:01.239Z,16.67
2018-08-22T09:09:08.303Z,15.30
2018-08-22T09:10:12.535Z,16.63
2018-08-22T09:11:16.681Z,18.33
2018-08-22T09:12:21.168Z,18.57
2018-08-22T09:13:25.262Z,19.27
2018-08-22T09:14:29.944Z,13.77
2018-08-22T09:15:34.132Z,24.00
2018-08-22T09:16:38.280Z,17.87
2018-08-22T09:17:42.496Z,23.47
2018-08-22T09:18:46.639Z,20.80
2018-08-22T09:19:50.820Z,18.13
2018-08-22T09:20:55.012Z,16.77
2018-08-22T09:21:59.144Z,18.60
2018-08-22T09:23:03.417Z,26.47
2018-08-22T09:24:07.606Z,24.90
2018-08-22T09:25:11.829Z,24.57
2018-08-22T09:26:15.983Z,27.60
2018-08-22T09:27:20.171Z,24.53
2018-08-22T09:28:24.465Z,19.47
2018-08-22T09:29:28.641Z,19.77
2018-08-22T09:30:32.986Z,26.60
2018-08-22T09:31:37.382Z,21.00
2018-08-22T09:32:41.573Z,19.23
2018-08-22T09:33:46.372Z,24.43
2018-08-22T09:34:50.742Z,21.10
2018-08-22T09:35:54.920Z,27.63
2018-08-22T09:36:59.130Z,23.33
2018-08-22T09:38:03.283Z,18.60
2018-08-22T09:39:09.874Z,18.80
2018-08-22T09:40:14.121Z,21.53
2018-08-22T09:41:18.536Z,31.33
2018-08-22T09:42:22.843Z,19.80
2018-08-22T09:43:27.014Z,21.20
2018-08-22T09:44:31.414Z,17.40
2018-08-22T09:45:35.567Z,19.20
2018-08-22T09:46:40.356Z,22.33
2018-08-22T09:47:44.575Z,18.57
2018-08-22T09:48:48.758Z,21.07
2018-08-22T09:49:52.951Z,18.20
2018-08-22T09:50:57.215Z,18.43
2018-08-22T09:52:01.320Z,28.27
2018-08-22T09:53:06.042Z,30.90
2018-08-22T09:54:10.239Z,23.00
2018-08-22T09:55:14.410Z,22.30
2018-08-22T09:56:18.573Z,29.17
2018-08-22T09:57:23.376Z,28.57
2018-08-22T09:58:27.613Z,22.50
2018-08-22T09:59:31.793Z,28.97
2018-08-22T10:00:41.304Z,30.43
2018-08-22T10:01:45.862Z,27.93
2018-08-22T10:02:50.093Z,22.50
2018-08-22T10:03:57.500Z,19.70
2018-08-22T10:05:01.758Z,23.73
2018-08-22T10:06:06.049Z,19.60
2018-08-22T10:07:10.302Z,19.33
2018-08-22T10:08:14.376Z,19.30
2018-08-22T10:09:22.025Z,18.63
2018-08-22T10:10:26.266Z,49.40
2018-08-22T10:11:30.443Z,25.87
2018-08-22T10:12:34.615Z,18.80
2018-08-22T10:13:38.820Z,30.53
2018-08-22T10:14:43.022Z,25.60
2018-08-22T10:15:47.185Z,25.73
2018-08-22T10:16:51.390Z,22.33
2018-08-22T10:17:55.544Z,18.53
2018-08-22T10:18:59.740Z,18.37
2018-08-22T10:20:04.007Z,22.57
2018-08-22T10:21:08.172Z,25.97
2018-08-22T10:22:12.378Z,27.53
2018-08-22T10:23:16.536Z,21.10
2018-08-22T10:24:20.852Z,20.83
2018-08-22T10:25:25.040Z,19.63
2018-08-22T10:26:29.297Z,22.40
2018-08-22T10:27:33.691Z,36.40
2018-08-22T10:28:37.868Z,26.87
2018-08-22T10:29:42.208Z,35.90
2018-08-22T10:30:46.395Z,28.20
2018-08-22T10:31:50.861Z,27.03
2018-08-22T10:32:55.150Z,37.27
2018-08-22T10:33:59.202Z,31.50
2018-08-22T10:35:03.423Z,27.83
2018-08-22T10:36:07.619Z,28.73
2018-08-22T10:37:11.763Z,33.73
2018-08-22T10:38:15.937Z,30.30
2018-08-22T10:39:20.281Z,29.63
2018-08-22T10:40:24.623Z,29.77
2018-08-22T10:41:29.108Z,29.63
2018-08-22T10:42:33.303Z,51.27
2018-08-22T10:43:37.519Z,26.70
2018-08-22T10:44:41.696Z,35.63
2018-08-22T10:45:45.957Z,25.80
2018-08-22T10:46:50.111Z,23.67
2018-08-22T10:47:54.410Z,22.77
2018-08-22T10:48:58.577Z,33.73
2018-08-22T10:50:02.770Z,24.93
2018-08-22T10:51:07.655Z,29.53
2018-08-22T10:52:11.831Z,26.03
2018-08-22T10:53:16.028Z,28.93
2018-08-22T10:54:20.251Z,24.83
2018-08-22T10:55:24.444Z,28.00
2018-08-22T10:56:28.825Z,28.33
2018-08-22T10:57:33.027Z,28.03
2018-08-22T10:58:37.201Z,26.50
2018-08-22T10:59:41.415Z,30.30
2018-08-22T11:00:45.616Z,32.00
2018-08-22T11:01:49.797Z,29.33
2018-08-22T11:02:54.057Z,28.00
2018-08-22T11:03:58.223Z,23.67
2018-08-22T11:05:09.021Z,24.90
2018-08-22T11:06:13.175Z,31.40
2018-08-22T11:07:18.076Z,28.27
2018-08-22T11:08:22.249Z,35.07
2018-08-22T11:09:26.438Z,21.90
2018-08-22T11:10:30.858Z,28.73
2018-08-22T11:11:35.070Z,25.30
2018-08-22T11:12:39.378Z,24.43
2018-08-22T11:13:43.539Z,24.33
2018-08-22T11:14:47.833Z,25.77
2018-08-22T11:15:52.067Z,20.17
2018-08-22T11:16:56.223Z,22.63
2018-08-22T11:18:00.547Z,29.03
2018-08-22T11:19:04.813Z,35.37
2018-08-22T11:20:09.495Z,24.73
2018-08-22T11:21:24.966Z,25.43
2018-08-22T11:22:40.247Z,27.80
2018-08-22T11:23:55.663Z,31.20
2018-08-22T11:25:11.362Z,22.80
2018-08-22T11:26:27.072Z,29.27
2018-08-22T11:27:42.551Z,20.20
2018-08-22T11:28:58.023Z,23.53
2018-08-22T11:30:13.590Z,29.10
2018-08-22T11:31:29.465Z,27.33
2018-08-22T11:32:45.015Z,22.40
2018-08-22T11:34:00.572Z,22.53
2018-08-22T11:35:03.693Z,22.90
2018-08-22T11:36:07.041Z,23.73
2018-08-22T11:37:12.615Z,22.10
2018-08-22T11:38:16.820Z,19.23
2018-08-22T11:39:21.448Z,20.03
2018-08-22T11:40:25.647Z,19.70
2018-08-22T11:41:30.633Z,23.83
2018-08-22T11:42:34.817Z,23.10
2018-08-22T11:43:38.980Z,24.23
2018-08-22T11:44:43.342Z,27.33
2018-08-22T11:45:47.523Z,22.33
2018-08-22T11:46:51.834Z,23.50
2018-08-22T11:47:55.997Z,20.77
2018-08-22T11:49:00.167Z,24.20
2018-08-22T11:50:04.368Z,19.83
2018-08-22T11:51:08.715Z,24.70
2018-08-22T11:52:12.867Z,14.20
2018-08-22T11:53:17.054Z,19.47
2018-08-22T11:54:21.436Z,32.00
2018-08-22T11:55:25.845Z,28.80
2018-08-22T11:56:30.011Z,26.00
2018-08-22T11:57:34.164Z,27.47
2018-08-22T11:58:38.379Z,30.53
2018-08-22T11:59:42.573Z,25.10
2018-08-22T12:00:47.036Z,25.97
2018-08-22T12:01:51.604Z,30.43
2018-08-22T12:02:55.723Z,23.73
2018-08-22T12:03:59.912Z,26.20
2018-08-22T12:05:04.266Z,23.80
2018-08-22T12:06:08.428Z,25.13
2018-08-22T12:07:12.611Z,29.33
2018-08-22T12:08:17.026Z,25.63
2018-08-22T12:09:21.319Z,21.80
2018-08-22T12:10:29.656Z,21.23
2018-08-22T12:11:33.820Z,20.93
2018-08-22T12:12:38.112Z,18.30
2018-08-22T12:13:42.286Z,19.17
2018-08-22T12:14:46.681Z,19.63
2018-08-22T12:15:50.901Z,20.87
2018-08-22T12:16:55.054Z,21.03
2018-08-22T12:17:59.443Z,19.10
2018-08-22T12:19:03.673Z,26.70
2018-08-22T12:20:08.301Z,20.20
2018-08-22T12:21:12.452Z,18.00
2018-08-22T12:22:16.616Z,25.30
2018-08-22T12:23:20.840Z,17.20
2018-08-22T12:24:24.948Z,22.70
2018-08-22T12:25:29.171Z,22.73
2018-08-22T12:26:33.345Z,22.83
2018-08-22T12:27:37.806Z,21.93
2018-08-22T12:28:42.256Z,20.33
2018-08-22T12:29:46.404Z,18.10
2018-08-22T12:30:50.605Z,15.90
2018-08-22T12:31:55.066Z,20.60
2018-08-22T12:32:59.212Z,27.23
2018-08-22T12:34:03.385Z,20.13
2018-08-22T12:35:07.988Z,17.03
2018-08-22T12:36:12.163Z,18.63
2018-08-22T12:37:16.501Z,18.83
2018-08-22T12:38:20.663Z,19.30
2018-08-22T12:39:24.808Z,16.27
2018-08-22T12:40:28.955Z,13.53
2018-08-22T12:41:33.528Z,18.67
2018-08-22T12:42:37.672Z,18.90
2018-08-22T12:43:41.876Z,18.13
2018-08-22T12:44:46.051Z,18.37
2018-08-22T12:45:50.450Z,14.53
2018-08-22T12:46:54.648Z,15.03
2018-08-22T12:47:58.832Z,23.20
2018-08-22T12:49:03.015Z,25.73
2018-08-22T12:50:07.275Z,20.67
2018-08-22T12:51:11.782Z,22.90
2018-08-22T12:52:16.080Z,21.70
2018-08-22T12:53:20.442Z,18.53
2018-08-22T12:54:24.659Z,17.83
2018-08-22T12:55:28.850Z,17.00
2018-08-22T12:56:33.122Z,23.30
2018-08-22T12:57:37.525Z,20.37
2018-08-22T12:58:41.676Z,23.57
2018-08-22T12:59:45.891Z,19.03
2018-08-22T13:00:50.097Z,19.03
2018-08-22T13:01:54.300Z,17.33
2018-08-22T13:02:58.499Z,19.63
2018-08-22T13:04:02.731Z,17.07
2018-08-22T13:05:06.950Z,15.77
2018-08-22T13:06:11.167Z,12.63
2018-08-22T13:07:15.334Z,19.00
2018-08-22T13:08:19.556Z,12.50
2018-08-22T13:09:23.764Z,18.30
2018-08-22T13:10:28.053Z,24.50
2018-08-22T13:11:32.387Z,16.27
2018-08-22T13:12:36.563Z,14.77
2018-08-22T13:13:40.756Z,19.77
2018-08-22T13:14:44.938Z,16.47
2018-08-22T13:15:49.102Z,19.83
2018-08-22T13:16:53.322Z,18.20
2018-08-22T13:17:57.480Z,16.47
2018-08-22T13:19:02.271Z,20.47
2018-08-22T13:20:06.668Z,21.77
2018-08-22T13:21:10.872Z,19.37
2018-08-22T13:22:15.044Z,17.27
2018-08-22T13:23:19.216Z,17.33
2018-08-22T13:24:23.604Z,18.13
2018-08-22T13:25:27.795Z,14.20
2018-08-22T13:26:31.998Z,15.70
2018-08-22T13:27:36.192Z,15.40
2018-08-22T13:28:40.354Z,19.33
2018-08-22T13:29:44.554Z,19.83
2018-08-22T13:30:48.910Z,17.70
2018-08-22T13:31:53.079Z,15.83
2018-08-22T13:32:57.271Z,11.27
2018-08-22T13:34:01.628Z,16.90
2018-08-22T13:35:06.252Z,18.53
2018-08-22T13:36:10.529Z,17.53
2018-08-22T13:37:14.832Z,15.93
2018-08-22T13:38:19.236Z,14.93
2018-08-22T13:39:23.438Z,17.80
2018-08-22T13:40:27.639Z,22.33
2018-08-22T13:41:31.838Z,24.20
2018-08-22T13:42:36.336Z,20.67
2018-08-22T13:43:40.679Z,19.40
2018-08-22T13:44:44.850Z,20.13
2018-08-22T13:45:49.032Z,19.43
2018-08-22T13:46:53.251Z,18.33
2018-08-22T13:47:57.414Z,17.50
2018-08-22T13:49:01.583Z,18.30
2018-08-22T13:50:05.778Z,21.77
2018-08-22T13:51:09.982Z,18.57
2018-08-22T13:52:14.242Z,20.50
2018-08-22T13:53:18.366Z,19.87
2018-08-22T13:54:22.546Z,14.73
2018-08-22T13:55:26.723Z,20.13
2018-08-22T13:56:31.046Z,14.67
2018-08-22T13:57:35.228Z,16.50
2018-08-22T13:58:39.385Z,25.73
2018-08-22T13:59:43.575Z,26.70
2018-08-22T14:00:47.921Z,16.17